sensor_id;sensor_type;location;lat;lon;timestamp;pressure;altitude;pressure_sealevel;temperature;humidity
65173;BME280;51758;52.218;5.172;2022-10-16T00:00:41;100770.09;;;12.89;100.00
65173;BME280;51758;52.218;5.172;2022-10-16T00:03:09;100771.66;;;12.83;100.00
65173;BME280;51758;52.218;5.172;2022-10-16T00:05:40;100767.03;;;12.85;100.00
65173;BME280;51758;52.218;5.172;2022-10-16T00:08:08;100773.72;;;12.88;100.00
65173;BME280;51758;52.218;5.172;2022-10-16T00:10:36;100767.25;;;12.84;100.00
65173;BME280;51758;52.218;5.172;2022-10-16T00:13:06;100772.72;;;12.89;100.00
65173;BME280;51758;52.218;5.172;2022-10-16T00:15:34;100770.09;;;12.89;100.00
65173;BME280;51758;52.218;5.172;2022-10-16T00:18:03;100780.16;;;12.85;100.00
65173;BME280;51758;52.218;5.172;2022-10-16T00:20:33;100784.03;;;12.96;100.00
65173;BME280;51758;52.218;5.172;2022-10-16T00:23:01;100766.88;;;12.93;100.00
65173;BME280;51758;52.218;5.172;2022-10-16T00:25:29;100772.91;;;12.94;100.00
65173;BME280;51758;52.218;5.172;2022-10-16T00:27:59;100754.19;;;12.97;100.00
65173;BME280;51758;52.218;5.172;2022-10-16T00:30:28;100738.41;;;12.84;100.00
65173;BME280;51758;52.218;5.172;2022-10-16T00:32:56;100753.44;;;13.03;100.00
65173;BME280;51758;52.218;5.172;2022-10-16T00:35:23;100763.69;;;13.05;100.00
65173;BME280;51758;52.218;5.172;2022-10-16T00:37:51;100764.94;;;13.09;100.00
65173;BME280;51758;52.218;5.172;2022-10-16T00:40:18;100759.09;;;13.13;100.00
65173;BME280;51758;52.218;5.172;2022-10-16T00:42:46;100762.19;;;13.17;100.00
65173;BME280;51758;52.218;5.172;2022-10-16T00:45:13;100756.13;;;13.16;100.00
65173;BME280;51758;52.218;5.172;2022-10-16T00:47:43;100767.81;;;13.20;100.00
65173;BME280;51758;52.218;5.172;2022-10-16T00:50:16;100772.66;;;13.17;100.00
65173;BME280;51758;52.218;5.172;2022-10-16T00:52:46;100774.91;;;13.26;100.00
65173;BME280;51758;52.218;5.172;2022-10-16T00:55:14;100762.97;;;13.17;100.00
65173;BME280;51758;52.218;5.172;2022-10-16T00:57:42;100767.00;;;13.20;100.00
65173;BME280;51758;52.218;5.172;2022-10-16T01:00:15;100773.91;;;13.27;100.00
65173;BME280;51758;52.218;5.172;2022-10-16T01:02:44;100770.69;;;13.32;100.00
65173;BME280;51758;52.218;5.172;2022-10-16T01:05:12;100771.09;;;13.29;100.00
65173;BME280;51758;52.218;5.172;2022-10-16T01:07:43;100760.38;;;13.31;100.00
65173;BME280;51758;52.218;5.172;2022-10-16T01:10:14;100751.94;;;13.29;100.00
65173;BME280;51758;52.218;5.172;2022-10-16T01:12:45;100751.34;;;13.40;100.00
65173;BME280;51758;52.218;5.172;2022-10-16T01:15:16;100752.75;;;13.36;100.00
65173;BME280;51758;52.218;5.172;2022-10-16T01:17:48;100760.41;;;13.37;100.00
65173;BME280;51758;52.218;5.172;2022-10-16T01:20:21;100760.81;;;13.27;100.00
65173;BME280;51758;52.218;5.172;2022-10-16T01:22:57;100756.75;;;13.25;100.00
65173;BME280;51758;52.218;5.172;2022-10-16T01:25:30;100754.13;;;13.25;100.00
65173;BME280;51758;52.218;5.172;2022-10-16T01:28:04;100757.38;;;13.27;100.00
65173;BME280;51758;52.218;5.172;2022-10-16T01:30:33;100755.38;;;13.29;100.00
65173;BME280;51758;52.218;5.172;2022-10-16T01:33:02;100752.75;;;13.29;100.00
65173;BME280;51758;52.218;5.172;2022-10-16T01:35:36;100748.31;;;13.30;100.00
65173;BME280;51758;52.218;5.172;2022-10-16T01:38:06;100740.03;;;13.33;100.00
65173;BME280;51758;52.218;5.172;2022-10-16T01:40:36;100752.75;;;13.36;100.00
65173;BME280;51758;52.218;5.172;2022-10-16T01:43:08;100753.38;;;13.38;100.00
65173;BME280;51758;52.218;5.172;2022-10-16T01:45:37;100739.44;;;13.44;100.00
65173;BME280;51758;52.218;5.172;2022-10-16T01:48:05;100748.53;;;13.48;100.00
65173;BME280;51758;52.218;5.172;2022-10-16T01:50:37;100746.88;;;13.34;100.00
65173;BME280;51758;52.218;5.172;2022-10-16T01:53:06;100752.53;;;13.31;100.00
65173;BME280;51758;52.218;5.172;2022-10-16T01:55:35;100749.69;;;13.25;100.00
65173;BME280;51758;52.218;5.172;2022-10-16T01:58:05;100761.19;;;13.24;100.00
65173;BME280;51758;52.218;5.172;2022-10-16T02:00:36;100759.81;;;13.29;100.00
65173;BME280;51758;52.218;5.172;2022-10-16T02:03:05;100757.75;;;13.31;100.00
65173;BME280;51758;52.218;5.172;2022-10-16T02:05:34;100760.97;;;13.19;100.00
65173;BME280;51758;52.218;5.172;2022-10-16T02:08:05;100765.44;;;13.25;100.00
65173;BME280;51758;52.218;5.172;2022-10-16T02:10:33;100768.63;;;13.14;100.00
65173;BME280;51758;52.218;5.172;2022-10-16T02:13:03;100761.50;;;13.08;100.00
65173;BME280;51758;52.218;5.172;2022-10-16T02:15:33;100769.44;;;13.21;100.00
65173;BME280;51758;52.218;5.172;2022-10-16T02:18:02;100777.59;;;13.05;100.00
65173;BME280;51758;52.218;5.172;2022-10-16T02:20:31;100783.59;;;12.92;100.00
65173;BME280;51758;52.218;5.172;2022-10-16T02:23:00;100775.34;;;12.89;100.00
65173;BME280;51758;52.218;5.172;2022-10-16T02:25:29;100785.19;;;12.87;100.00
65173;BME280;51758;52.218;5.172;2022-10-16T02:27:58;100786.16;;;12.79;100.00
65173;BME280;51758;52.218;5.172;2022-10-16T02:30:27;100788.56;;;12.74;100.00
65173;BME280;51758;52.218;5.172;2022-10-16T02:32:56;100791.38;;;12.79;100.00
65173;BME280;51758;52.218;5.172;2022-10-16T02:35:26;100792.59;;;12.77;100.00
65173;BME280;51758;52.218;5.172;2022-10-16T02:37:54;100788.75;;;12.79;100.00
65173;BME280;51758;52.218;5.172;2022-10-16T02:40:23;100792.81;;;12.82;100.00
65173;BME280;51758;52.218;5.172;2022-10-16T02:42:51;100795.84;;;12.79;100.00
65173;BME280;51758;52.218;5.172;2022-10-16T02:45:19;100797.03;;;12.76;100.00
65173;BME280;51758;52.218;5.172;2022-10-16T02:47:46;100803.09;;;12.77;100.00
65173;BME280;51758;52.218;5.172;2022-10-16T02:50:14;100795.78;;;12.72;100.00
65173;BME280;51758;52.218;5.172;2022-10-16T02:52:43;100795.41;;;12.75;100.00
65173;BME280;51758;52.218;5.172;2022-10-16T02:55:11;100803.47;;;12.74;100.00
65173;BME280;51758;52.218;5.172;2022-10-16T02:57:38;100797.66;;;12.78;100.00
65173;BME280;51758;52.218;5.172;2022-10-16T03:00:07;100798.66;;;12.77;100.00
65173;BME280;51758;52.218;5.172;2022-10-16T03:02:34;100799.66;;;12.76;100.00
65173;BME280;51758;52.218;5.172;2022-10-16T03:05:02;100793.00;;;12.74;100.00
65173;BME280;51758;52.218;5.172;2022-10-16T03:07:30;100800.31;;;12.85;100.00
65173;BME280;51758;52.218;5.172;2022-10-16T03:09:59;100790.38;;;12.80;100.00
65173;BME280;51758;52.218;5.172;2022-10-16T03:12:27;100790.38;;;12.74;100.00
65173;BME280;51758;52.218;5.172;2022-10-16T03:14:54;100785.38;;;12.79;100.00
65173;BME280;51758;52.218;5.172;2022-10-16T03:17:22;100781.69;;;12.73;100.00
65173;BME280;51758;52.218;5.172;2022-10-16T03:19:51;100786.50;;;12.70;100.00
65173;BME280;51758;52.218;5.172;2022-10-16T03:22:18;100790.56;;;12.72;100.00
65173;BME280;51758;52.218;5.172;2022-10-16T03:24:46;100788.50;;;12.68;100.00
65173;BME280;51758;52.218;5.172;2022-10-16T03:27:15;100791.00;;;12.76;100.00
65173;BME280;51758;52.218;5.172;2022-10-16T03:29:42;100801.19;;;12.64;100.00
65173;BME280;51758;52.218;5.172;2022-10-16T03:32:10;100797.41;;;12.73;100.00
65173;BME280;51758;52.218;5.172;2022-10-16T03:34:37;100800.38;;;12.64;100.00
65173;BME280;51758;52.218;5.172;2022-10-16T03:37:05;100813.06;;;12.67;100.00
65173;BME280;51758;52.218;5.172;2022-10-16T03:39:32;100807.84;;;12.67;100.00
65173;BME280;51758;52.218;5.172;2022-10-16T03:42:00;100815.31;;;12.70;100.00
65173;BME280;51758;52.218;5.172;2022-10-16T03:44:29;100819.13;;;12.67;100.00
65173;BME280;51758;52.218;5.172;2022-10-16T03:46:56;100830.28;;;12.76;100.00
65173;BME280;51758;52.218;5.172;2022-10-16T03:49:23;100826.75;;;12.62;100.00
65173;BME280;51758;52.218;5.172;2022-10-16T03:51:51;100812.66;;;12.63;100.00
65173;BME280;51758;52.218;5.172;2022-10-16T03:54:19;100822.59;;;12.74;100.00
65173;BME280;51758;52.218;5.172;2022-10-16T03:56:48;100815.56;;;12.75;100.00
65173;BME280;51758;52.218;5.172;2022-10-16T03:59:15;100814.09;;;12.66;100.00
65173;BME280;51758;52.218;5.172;2022-10-16T04:01:44;100819.13;;;12.67;100.00
65173;BME280;51758;52.218;5.172;2022-10-16T04:04:11;100836.28;;;12.70;100.00
65173;BME280;51758;52.218;5.172;2022-10-16T04:06:39;100837.91;;;12.71;100.00
65173;BME280;51758;52.218;5.172;2022-10-16T04:09:07;100838.53;;;12.79;100.00
65173;BME280;51758;52.218;5.172;2022-10-16T04:11:34;100837.53;;;12.74;100.00
65173;BME280;51758;52.218;5.172;2022-10-16T04:14:02;100839.31;;;12.73;100.00
65173;BME280;51758;52.218;5.172;2022-10-16T04:16:29;100833.84;;;12.68;100.00
65173;BME280;51758;52.218;5.172;2022-10-16T04:18:58;100847.53;;;12.64;100.00
65173;BME280;51758;52.218;5.172;2022-10-16T04:21:26;100842.56;;;12.75;100.00
65173;BME280;51758;52.218;5.172;2022-10-16T04:23:53;100850.38;;;12.69;100.00
65173;BME280;51758;52.218;5.172;2022-10-16T04:26:21;100855.38;;;12.64;100.00
65173;BME280;51758;52.218;5.172;2022-10-16T04:28:48;100851.38;;;12.68;100.00
65173;BME280;51758;52.218;5.172;2022-10-16T04:31:16;100859.38;;;12.60;100.00
65173;BME280;51758;52.218;5.172;2022-10-16T04:33:44;100865.97;;;12.55;100.00
65173;BME280;51758;52.218;5.172;2022-10-16T04:36:12;100869.47;;;12.63;100.00
65173;BME280;51758;52.218;5.172;2022-10-16T04:38:40;100879.97;;;12.63;100.00
65173;BME280;51758;52.218;5.172;2022-10-16T04:41:07;100877.53;;;12.61;100.00
65173;BME280;51758;52.218;5.172;2022-10-16T04:43:35;100883.19;;;12.65;100.00
65173;BME280;51758;52.218;5.172;2022-10-16T04:46:03;100880.97;;;12.62;100.00
65173;BME280;51758;52.218;5.172;2022-10-16T04:48:31;100894.88;;;12.62;100.00
65173;BME280;51758;52.218;5.172;2022-10-16T04:50:58;100880.88;;;12.55;100.00
65173;BME280;51758;52.218;5.172;2022-10-16T04:53:27;100882.84;;;12.46;100.00
65173;BME280;51758;52.218;5.172;2022-10-16T04:55:55;100877.75;;;12.38;100.00
65173;BME280;51758;52.218;5.172;2022-10-16T04:58:23;100894.63;;;12.36;100.00
65173;BME280;51758;52.218;5.172;2022-10-16T05:00:50;100895.84;;;12.61;100.00
65173;BME280;51758;52.218;5.172;2022-10-16T05:03:18;100901.84;;;12.55;100.00
65173;BME280;51758;52.218;5.172;2022-10-16T05:05:46;100911.03;;;12.44;100.00
65173;BME280;51758;52.218;5.172;2022-10-16T05:08:14;100919.75;;;12.51;100.00
65173;BME280;51758;52.218;5.172;2022-10-16T05:10:43;100925.72;;;12.45;100.00
65173;BME280;51758;52.218;5.172;2022-10-16T05:13:11;100926.31;;;12.41;100.00
65173;BME280;51758;52.218;5.172;2022-10-16T05:15:38;100931.56;;;12.41;100.00
65173;BME280;51758;52.218;5.172;2022-10-16T05:18:06;100936.03;;;12.47;100.00
65173;BME280;51758;52.218;5.172;2022-10-16T05:20:34;100943.06;;;12.46;100.00
65173;BME280;51758;52.218;5.172;2022-10-16T05:23:01;100937.56;;;12.41;100.00
65173;BME280;51758;52.218;5.172;2022-10-16T05:25:29;100937.69;;;12.54;100.00
65173;BME280;51758;52.218;5.172;2022-10-16T05:27:57;100942.63;;;12.43;100.00
65173;BME280;51758;52.218;5.172;2022-10-16T05:30:25;100948.97;;;12.55;100.00
65173;BME280;51758;52.218;5.172;2022-10-16T05:32:52;100947.03;;;12.42;100.00
65173;BME280;51758;52.218;5.172;2022-10-16T05:35:20;100959.97;;;12.44;100.00
65173;BME280;51758;52.218;5.172;2022-10-16T05:37:48;100958.41;;;12.49;100.00
65173;BME280;51758;52.218;5.172;2022-10-16T05:40:15;100969.13;;;12.54;100.00
65173;BME280;51758;52.218;5.172;2022-10-16T05:42:43;100976.56;;;12.51;100.00
65173;BME280;51758;52.218;5.172;2022-10-16T05:45:12;100985.41;;;12.50;100.00
65173;BME280;51758;52.218;5.172;2022-10-16T05:47:40;100981.78;;;12.51;100.00
65173;BME280;51758;52.218;5.172;2022-10-16T05:50:07;100986.22;;;12.50;100.00
65173;BME280;51758;52.218;5.172;2022-10-16T05:52:35;100982.88;;;12.42;100.00
65173;BME280;51758;52.218;5.172;2022-10-16T05:55:03;100990.34;;;12.38;100.00
65173;BME280;51758;52.218;5.172;2022-10-16T05:57:30;100990.16;;;12.40;100.00
65173;BME280;51758;52.218;5.172;2022-10-16T05:59:58;100997.91;;;12.33;100.00
65173;BME280;51758;52.218;5.172;2022-10-16T06:02:27;100992.19;;;12.44;100.00
65173;BME280;51758;52.218;5.172;2022-10-16T06:04:54;101007.34;;;12.28;100.00
65173;BME280;51758;52.218;5.172;2022-10-16T06:07:22;101005.91;;;12.25;100.00
65173;BME280;51758;52.218;5.172;2022-10-16T06:09:50;101014.91;;;12.23;100.00
65173;BME280;51758;52.218;5.172;2022-10-16T06:12:18;101008.69;;;12.24;100.00
65173;BME280;51758;52.218;5.172;2022-10-16T06:14:46;100998.53;;;12.14;100.00
65173;BME280;51758;52.218;5.172;2022-10-16T06:17:14;101016.66;;;12.15;100.00
65173;BME280;51758;52.218;5.172;2022-10-16T06:19:43;101012.34;;;12.08;100.00
65173;BME280;51758;52.218;5.172;2022-10-16T06:22:11;101002.69;;;12.08;100.00
65173;BME280;51758;52.218;5.172;2022-10-16T06:24:38;101014.31;;;12.06;100.00
65173;BME280;51758;52.218;5.172;2022-10-16T06:27:06;101002.41;;;12.03;100.00
65173;BME280;51758;52.218;5.172;2022-10-16T06:29:34;101005.84;;;12.04;100.00
65173;BME280;51758;52.218;5.172;2022-10-16T06:32:01;101005.22;;;12.02;100.00
65173;BME280;51758;52.218;5.172;2022-10-16T06:34:29;101005.94;;;12.10;100.00
65173;BME280;51758;52.218;5.172;2022-10-16T06:36:58;101017.50;;;12.01;100.00
65173;BME280;51758;52.218;5.172;2022-10-16T06:39:25;101016.28;;;12.04;100.00
65173;BME280;51758;52.218;5.172;2022-10-16T06:41:53;101023.53;;;12.02;100.00
65173;BME280;51758;52.218;5.172;2022-10-16T06:44:20;101025.16;;;12.03;100.00
65173;BME280;51758;52.218;5.172;2022-10-16T06:46:49;101019.13;;;12.02;100.00
65173;BME280;51758;52.218;5.172;2022-10-16T06:49:16;101022.91;;;12.00;100.00
65173;BME280;51758;52.218;5.172;2022-10-16T06:51:48;101034.00;;;12.02;100.00
65173;BME280;51758;52.218;5.172;2022-10-16T06:54:17;101020.94;;;12.02;100.00
65173;BME280;51758;52.218;5.172;2022-10-16T06:56:44;101029.59;;;12.02;100.00
65173;BME280;51758;52.218;5.172;2022-10-16T06:59:12;101035.25;;;12.06;100.00
65173;BME280;51758;52.218;5.172;2022-10-16T07:01:39;101040.94;;;12.09;100.00
65173;BME280;51758;52.218;5.172;2022-10-16T07:04:07;101046.25;;;12.16;100.00
65173;BME280;51758;52.218;5.172;2022-10-16T07:06:34;101048.13;;;12.22;100.00
65173;BME280;51758;52.218;5.172;2022-10-16T07:09:03;101063.31;;;12.27;100.00
65173;BME280;51758;52.218;5.172;2022-10-16T07:11:33;101066.50;;;12.43;100.00
65173;BME280;51758;52.218;5.172;2022-10-16T07:14:00;101067.88;;;12.39;100.00
65173;BME280;51758;52.218;5.172;2022-10-16T07:16:28;101084.81;;;12.43;100.00
65173;BME280;51758;52.218;5.172;2022-10-16T07:18:57;101074.75;;;12.40;100.00
65173;BME280;51758;52.218;5.172;2022-10-16T07:21:27;101078.72;;;12.36;100.00
65173;BME280;51758;52.218;5.172;2022-10-16T07:23:56;101092.69;;;12.43;100.00
65173;BME280;51758;52.218;5.172;2022-10-16T07:26:24;101025.16;;;12.03;100.00
65173;BME280;51758;52.218;5.172;2022-10-16T07:28:53;101093.69;;;12.42;100.00
65173;BME280;51758;52.218;5.172;2022-10-16T07:31:21;101093.69;;;12.42;100.00
65173;BME280;51758;52.218;5.172;2022-10-16T07:33:49;101103.56;;;12.40;100.00
65173;BME280;51758;52.218;5.172;2022-10-16T07:36:18;101119.78;;;12.50;100.00
65173;BME280;51758;52.218;5.172;2022-10-16T07:38:46;101113.81;;;12.42;100.00
65173;BME280;51758;52.218;5.172;2022-10-16T07:41:15;101122.47;;;12.42;100.00
65173;BME280;51758;52.218;5.172;2022-10-16T07:43:45;101134.22;;;12.46;100.00
65173;BME280;51758;52.218;5.172;2022-10-16T07:46:14;101140.72;;;12.50;100.00
65173;BME280;51758;52.218;5.172;2022-10-16T07:48:42;101151.03;;;12.52;100.00
65173;BME280;51758;52.218;5.172;2022-10-16T07:51:13;101150.84;;;12.53;100.00
65173;BME280;51758;52.218;5.172;2022-10-16T07:53:41;101152.25;;;12.56;100.00
65173;BME280;51758;52.218;5.172;2022-10-16T07:56:09;101146.94;;;12.64;100.00
65173;BME280;51758;52.218;5.172;2022-10-16T07:58:37;101158.66;;;12.68;100.00
65173;BME280;51758;52.218;5.172;2022-10-16T08:01:06;101152.69;;;12.74;100.00
65173;BME280;51758;52.218;5.172;2022-10-16T08:03:35;101154.38;;;12.82;100.00
65173;BME280;51758;52.218;5.172;2022-10-16T08:06:03;101156.91;;;12.90;100.00
65173;BME280;51758;52.218;5.172;2022-10-16T08:08:30;101161.50;;;12.88;100.00
65173;BME280;51758;52.218;5.172;2022-10-16T08:10:58;101174.03;;;12.92;100.00
65173;BME280;51758;52.218;5.172;2022-10-16T08:13:25;101165.63;;;12.97;100.00
65173;BME280;51758;52.218;5.172;2022-10-16T08:15:53;101173.13;;;13.00;100.00
65173;BME280;51758;52.218;5.172;2022-10-16T08:18:21;101188.28;;;13.05;100.00
65173;BME280;51758;52.218;5.172;2022-10-16T08:20:55;101185.13;;;13.09;100.00
65173;BME280;51758;52.218;5.172;2022-10-16T08:23:24;101194.09;;;13.15;100.00
65173;BME280;51758;52.218;5.172;2022-10-16T08:25:53;101191.59;;;13.28;100.00
65173;BME280;51758;52.218;5.172;2022-10-16T08:28:21;101191.59;;;13.28;100.00
65173;BME280;51758;52.218;5.172;2022-10-16T08:30:49;101191.22;;;13.31;100.00
65173;BME280;51758;52.218;5.172;2022-10-16T08:33:16;101194.81;;;13.30;100.00
65173;BME280;51758;52.218;5.172;2022-10-16T08:35:49;101198.78;;;13.41;100.00
65173;BME280;51758;52.218;5.172;2022-10-16T08:38:18;101197.28;;;13.53;100.00
65173;BME280;51758;52.218;5.172;2022-10-16T08:40:46;101207.81;;;13.59;100.00
65173;BME280;51758;52.218;5.172;2022-10-16T08:43:24;101208.94;;;13.72;100.00
65173;BME280;51758;52.218;5.172;2022-10-16T08:46:01;101221.69;;;13.75;100.00
65173;BME280;51758;52.218;5.172;2022-10-16T08:48:34;101227.19;;;13.80;100.00
65173;BME280;51758;52.218;5.172;2022-10-16T08:51:03;101217.34;;;13.88;100.00
65173;BME280;51758;52.218;5.172;2022-10-16T08:53:36;101219.34;;;13.86;100.00
65173;BME280;51758;52.218;5.172;2022-10-16T08:56:06;101232.72;;;13.91;100.00
65173;BME280;51758;52.218;5.172;2022-10-16T08:58:34;101238.19;;;13.96;100.00
65173;BME280;51758;52.218;5.172;2022-10-16T09:01:03;101234.34;;;13.92;100.00
65173;BME280;51758;52.218;5.172;2022-10-16T09:03:33;101241.06;;;14.02;100.00
65173;BME280;51758;52.218;5.172;2022-10-16T09:06:10;101250.69;;;14.16;100.00
65173;BME280;51758;52.218;5.172;2022-10-16T09:08:46;101250.28;;;14.19;100.00
65173;BME280;51758;52.218;5.172;2022-10-16T09:11:20;101260.59;;;14.20;100.00
65173;BME280;51758;52.218;5.172;2022-10-16T09:13:54;101265.28;;;14.25;100.00
65173;BME280;51758;52.218;5.172;2022-10-16T09:16:27;101269.19;;;14.35;100.00
65173;BME280;51758;52.218;5.172;2022-10-16T09:18:58;101273.09;;;14.40;100.00
65173;BME280;51758;52.218;5.172;2022-10-16T09:21:28;101275.81;;;14.53;100.00
65173;BME280;51758;52.218;5.172;2022-10-16T09:23:58;101285.69;;;14.51;100.00
65173;BME280;51758;52.218;5.172;2022-10-16T09:26:26;101289.75;;;14.53;100.00
65173;BME280;51758;52.218;5.172;2022-10-16T09:28:54;101291.63;;;14.38;100.00
65173;BME280;51758;52.218;5.172;2022-10-16T09:31:22;101292.72;;;14.44;100.00
65173;BME280;51758;52.218;5.172;2022-10-16T09:33:51;101289.47;;;14.42;100.00
65173;BME280;51758;52.218;5.172;2022-10-16T09:36:20;101293.44;;;14.38;100.00
65173;BME280;51758;52.218;5.172;2022-10-16T09:39:01;101294.81;;;14.55;100.00
65173;BME280;51758;52.218;5.172;2022-10-16T09:41:30;101301.53;;;14.64;100.00
65173;BME280;51758;52.218;5.172;2022-10-16T09:43:58;101302.44;;;14.78;100.00
65173;BME280;51758;52.218;5.172;2022-10-16T09:46:28;101309.31;;;14.85;100.00
65173;BME280;51758;52.218;5.172;2022-10-16T09:48:56;101305.19;;;14.69;100.00
65173;BME280;51758;52.218;5.172;2022-10-16T09:51:25;101307.63;;;14.71;100.00
65173;BME280;51758;52.218;5.172;2022-10-16T09:53:54;101305.59;;;14.66;100.00
65173;BME280;51758;52.218;5.172;2022-10-16T09:56:22;101314.19;;;14.82;100.00
65173;BME280;51758;52.218;5.172;2022-10-16T09:58:52;101321.91;;;14.90;100.00
65173;BME280;51758;52.218;5.172;2022-10-16T10:01:20;101319.97;;;15.05;100.00
65173;BME280;51758;52.218;5.172;2022-10-16T10:03:48;101317.91;;;15.00;100.00
65173;BME280;51758;52.218;5.172;2022-10-16T10:06:21;101320.59;;;15.07;100.00
65173;BME280;51758;52.218;5.172;2022-10-16T10:09:00;101311.69;;;15.15;100.00
65173;BME280;51758;52.218;5.172;2022-10-16T10:11:45;101323.69;;;15.30;100.00
65173;BME280;51758;52.218;5.172;2022-10-16T10:17:14;101324.50;;;15.31;100.00
65173;BME280;51758;52.218;5.172;2022-10-16T10:19:43;101329.78;;;15.37;100.00
65173;BME280;51758;52.218;5.172;2022-10-16T10:22:25;101326.53;;;15.35;100.00
65173;BME280;51758;52.218;5.172;2022-10-16T10:24:54;101325.72;;;15.28;100.00
65173;BME280;51758;52.218;5.172;2022-10-16T10:27:23;101329.97;;;15.29;100.00
65173;BME280;51758;52.218;5.172;2022-10-16T10:29:53;101341.34;;;15.43;100.00
65173;BME280;51758;52.218;5.172;2022-10-16T10:32:27;101353.28;;;15.46;100.00
65173;BME280;51758;52.218;5.172;2022-10-16T10:35:04;101358.28;;;15.88;100.00
65173;BME280;51758;52.218;5.172;2022-10-16T10:37:41;101358.53;;;16.26;100.00
65173;BME280;51758;52.218;5.172;2022-10-16T10:40:15;101353.47;;;16.31;100.00
65173;BME280;51758;52.218;5.172;2022-10-16T10:42:50;101355.69;;;16.34;100.00
65173;BME280;51758;52.218;5.172;2022-10-16T10:45:23;101356.28;;;16.10;100.00
65173;BME280;51758;52.218;5.172;2022-10-16T10:47:58;101367.78;;;15.76;100.00
65173;BME280;51758;52.218;5.172;2022-10-16T10:50:30;101373.91;;;16.03;100.00
65173;BME280;51758;52.218;5.172;2022-10-16T10:53:03;101370.44;;;15.89;100.00
65173;BME280;51758;52.218;5.172;2022-10-16T10:55:37;101379.56;;;16.00;100.00
65173;BME280;51758;52.218;5.172;2022-10-16T10:58:20;101372.13;;;16.30;100.00
65173;BME280;51758;52.218;5.172;2022-10-16T11:00:54;101382.25;;;16.26;100.00
65173;BME280;51758;52.218;5.172;2022-10-16T11:03:31;101385.88;;;16.05;100.00
65173;BME280;51758;52.218;5.172;2022-10-16T11:06:03;101391.50;;;15.89;100.00
65173;BME280;51758;52.218;5.172;2022-10-16T11:08:34;101392.28;;;15.76;100.00
65173;BME280;51758;52.218;5.172;2022-10-16T11:11:04;101392.94;;;15.92;100.00
65173;BME280;51758;52.218;5.172;2022-10-16T11:13:34;101396.19;;;15.94;100.00
65173;BME280;51758;52.218;5.172;2022-10-16T11:16:06;101388.09;;;16.08;100.00
65173;BME280;51758;52.218;5.172;2022-10-16T11:18:45;101399.44;;;16.22;100.00
65173;BME280;51758;52.218;5.172;2022-10-16T11:21:17;101397.66;;;16.29;100.00
65173;BME280;51758;52.218;5.172;2022-10-16T11:23:51;101405.34;;;16.24;100.00
65173;BME280;51758;52.218;5.172;2022-10-16T11:26:21;101413.44;;;16.23;100.00
65173;BME280;51758;52.218;5.172;2022-10-16T11:28:51;101408.59;;;16.39;100.00
65173;BME280;51758;52.218;5.172;2022-10-16T11:31:22;101415.69;;;16.52;100.00
65173;BME280;51758;52.218;5.172;2022-10-16T11:33:54;101422.41;;;16.68;100.00
65173;BME280;51758;52.218;5.172;2022-10-16T11:36:27;101426.47;;;16.70;100.00
65173;BME280;51758;52.218;5.172;2022-10-16T11:38:58;101423.19;;;16.88;100.00
65173;BME280;51758;52.218;5.172;2022-10-16T11:41:28;101418.75;;;16.95;100.00
65173;BME280;51758;52.218;5.172;2022-10-16T11:44:06;101435.38;;;16.89;100.00
65173;BME280;51758;52.218;5.172;2022-10-16T11:46:36;101429.91;;;16.91;100.00
65173;BME280;51758;52.218;5.172;2022-10-16T11:49:30;101430.28;;;17.01;100.00
65173;BME280;51758;52.218;5.172;2022-10-16T11:51:59;101419.38;;;16.71;100.00
65173;BME280;51758;52.218;5.172;2022-10-16T11:54:32;101435.78;;;16.93;100.00
65173;BME280;51758;52.218;5.172;2022-10-16T11:57:14;101446.16;;;16.68;100.00
65173;BME280;51758;52.218;5.172;2022-10-16T11:59:44;101432.53;;;16.58;100.00
65173;BME280;51758;52.218;5.172;2022-10-16T12:02:21;101433.94;;;16.60;100.00
65173;BME280;51758;52.218;5.172;2022-10-16T12:04:57;101439.00;;;16.42;100.00
65173;BME280;51758;52.218;5.172;2022-10-16T12:07:32;101451.97;;;16.37;100.00
65173;BME280;51758;52.218;5.172;2022-10-16T12:10:09;101447.50;;;16.31;100.00
65173;BME280;51758;52.218;5.172;2022-10-16T12:12:38;101451.97;;;16.50;100.00
65173;BME280;51758;52.218;5.172;2022-10-16T12:15:18;101457.88;;;16.85;100.00
65173;BME280;51758;52.218;5.172;2022-10-16T12:18:07;101458.28;;;17.02;100.00
65173;BME280;51758;52.218;5.172;2022-10-16T12:20:55;101463.09;;;17.31;100.00
65173;BME280;51758;52.218;5.172;2022-10-16T12:23:25;101461.31;;;17.18;100.00
65173;BME280;51758;52.218;5.172;2022-10-16T12:25:54;101465.88;;;18.07;100.00
65173;BME280;51758;52.218;5.172;2022-10-16T12:28:22;101464.94;;;17.88;100.00
65173;BME280;51758;52.218;5.172;2022-10-16T12:30:53;101465.78;;;17.82;100.00
65173;BME280;51758;52.218;5.172;2022-10-16T12:33:22;101465.97;;;17.10;100.00
65173;BME280;51758;52.218;5.172;2022-10-16T12:35:51;101478.19;;;17.75;100.00
65173;BME280;51758;52.218;5.172;2022-10-16T12:38:21;101485.31;;;18.19;100.00
65173;BME280;51758;52.218;5.172;2022-10-16T12:40:54;101475.72;;;17.87;100.00
65173;BME280;51758;52.218;5.172;2022-10-16T12:43:25;101481.78;;;17.94;100.00
65173;BME280;51758;52.218;5.172;2022-10-16T12:45:58;101480.88;;;18.45;100.00
65173;BME280;51758;52.218;5.172;2022-10-16T12:48:26;101476.53;;;17.87;100.00
65173;BME280;51758;52.218;5.172;2022-10-16T12:51:21;101476.56;;;17.81;100.00
65173;BME280;51758;52.218;5.172;2022-10-16T12:53:59;101472.56;;;17.72;100.00
65173;BME280;51758;52.218;5.172;2022-10-16T12:56:28;101480.72;;;17.37;100.00